createdAt,value
2022-10-29T00:00:55.589Z,15.26
2022-10-29T00:03:23.076Z,15.26
2022-10-29T00:06:01.294Z,15.11
2022-10-29T00:08:29.178Z,15.35
2022-10-29T00:10:56.592Z,15.44
2022-10-29T00:13:23.362Z,15.55
2022-10-29T00:15:49.902Z,15.34
2022-10-29T00:18:16.445Z,15.12
2022-10-29T00:20:43.022Z,15.08
2022-10-29T00:23:09.769Z,15.41
2022-10-29T00:25:36.369Z,15.41
2022-10-29T00:28:02.944Z,15.10
2022-10-29T00:30:29.508Z,15.06
2022-10-29T00:32:56.329Z,14.90
2022-10-29T00:35:23.188Z,15.11
2022-10-29T00:37:49.693Z,15.16
2022-10-29T00:40:16.376Z,15.03
2022-10-29T00:42:42.925Z,15.30
2022-10-29T00:45:19.380Z,15.44
2022-10-29T00:47:50.908Z,15.49
2022-10-29T00:50:20.643Z,15.53
2022-10-29T00:52:49.446Z,15.62
2022-10-29T00:55:17.319Z,15.35
2022-10-29T00:57:50.122Z,15.31
2022-10-29T01:00:18.794Z,15.58
2022-10-29T01:02:45.925Z,15.49
2022-10-29T01:05:17.205Z,15.65
2022-10-29T01:07:44.095Z,15.44
2022-10-29T01:10:12.405Z,15.35
2022-10-29T01:12:52.783Z,15.48
2022-10-29T01:15:38.057Z,15.50
2022-10-29T01:18:16.695Z,15.38
2022-10-29T01:21:32.426Z,15.48
2022-10-29T01:24:23.507Z,15.62
2022-10-29T01:27:24.467Z,15.58
2022-10-29T01:30:09.349Z,15.51
2022-10-29T01:32:51.250Z,15.52
2022-10-29T01:35:38.480Z,15.59
2022-10-29T01:38:18.040Z,15.46
2022-10-29T01:41:09.831Z,15.57
2022-10-29T01:44:26.947Z,15.32
2022-10-29T01:47:00.374Z,15.52
2022-10-29T01:49:34.771Z,15.52
2022-10-29T01:52:04.076Z,15.47
2022-10-29T01:54:30.625Z,14.96
2022-10-29T01:56:58.643Z,15.30
2022-10-29T01:59:36.386Z,15.26
2022-10-29T02:02:30.658Z,15.44
2022-10-29T02:05:12.562Z,15.30
2022-10-29T02:07:58.294Z,15.43
2022-10-29T02:10:33.961Z,15.34
2022-10-29T02:13:00.867Z,15.02
2022-10-29T02:15:35.561Z,14.97
2022-10-29T02:18:05.009Z,15.14
2022-10-29T02:20:31.639Z,15.04
2022-10-29T02:22:58.558Z,15.17
2022-10-29T02:25:25.283Z,15.01
2022-10-29T02:27:52.135Z,15.29
2022-10-29T02:30:19.276Z,15.27
2022-10-29T02:32:45.807Z,14.95
2022-10-29T02:35:12.417Z,14.71
2022-10-29T02:37:38.984Z,14.75
2022-10-29T02:40:06.070Z,14.71
2022-10-29T02:42:32.604Z,14.70
2022-10-29T02:44:59.162Z,14.96
2022-10-29T02:47:25.750Z,14.99
2022-10-29T02:49:52.279Z,14.62
2022-10-29T02:52:19.076Z,14.54
2022-10-29T02:54:46.020Z,14.78
2022-10-29T02:57:12.533Z,14.61
2022-10-29T02:59:39.095Z,14.55
2022-10-29T03:02:05.870Z,14.55
2022-10-29T03:04:32.987Z,14.56
2022-10-29T03:07:00.201Z,14.54
2022-10-29T03:09:26.739Z,14.51
2022-10-29T03:11:53.346Z,14.06
2022-10-29T03:14:19.919Z,13.91
2022-10-29T03:16:46.452Z,13.95
2022-10-29T03:19:13.078Z,13.81
2022-10-29T03:21:39.596Z,14.07
2022-10-29T03:24:06.473Z,13.96
2022-10-29T03:26:33.022Z,13.98
2022-10-29T03:28:59.667Z,13.76
2022-10-29T03:31:26.214Z,13.66
2022-10-29T03:33:52.778Z,13.50
2022-10-29T03:36:19.402Z,13.66
2022-10-29T03:38:45.990Z,13.62
2022-10-29T03:41:12.694Z,13.66
2022-10-29T03:43:39.496Z,13.37
2022-10-29T03:46:06.299Z,13.49
2022-10-29T03:48:33.206Z,13.57
2022-10-29T03:51:01.820Z,13.54
2022-10-29T03:53:29.441Z,13.59
2022-10-29T03:55:57.208Z,13.60
2022-10-29T03:58:25.342Z,13.39
2022-10-29T04:01:00.525Z,13.37
2022-10-29T04:03:28.823Z,13.23
2022-10-29T04:05:56.124Z,13.19
2022-10-29T04:08:22.766Z,13.14
2022-10-29T04:10:50.906Z,13.13
2022-10-29T04:13:18.283Z,13.07
2022-10-29T04:15:45.529Z,13.08
2022-10-29T04:18:12.697Z,12.95
2022-10-29T04:20:57.002Z,13.01
2022-10-29T04:29:00.509Z,12.87
2022-10-29T04:31:27.064Z,12.81
2022-10-29T04:33:53.954Z,12.73
2022-10-29T04:36:20.557Z,12.40
2022-10-29T04:38:47.203Z,12.66
2022-10-29T04:41:13.721Z,12.70
2022-10-29T04:43:40.308Z,12.47
2022-10-29T04:46:06.926Z,12.27
2022-10-29T04:48:33.577Z,12.31
2022-10-29T04:51:00.190Z,12.48
2022-10-29T04:53:26.808Z,12.43
2022-10-29T04:55:59.812Z,12.15
2022-10-29T04:58:26.423Z,12.17
2022-10-29T05:00:53.083Z,12.21
2022-10-29T05:03:19.744Z,12.02
2022-10-29T05:05:46.256Z,11.98
2022-10-29T05:08:13.190Z,12.14
2022-10-29T05:10:40.156Z,11.93
2022-10-29T05:13:10.479Z,12.11
2022-10-29T05:15:37.733Z,11.98
2022-10-29T05:18:05.301Z,12.07
2022-10-29T05:20:31.873Z,11.97
2022-10-29T05:23:06.395Z,11.96
2022-10-29T05:25:35.589Z,12.04
2022-10-29T05:28:05.097Z,12.11
2022-10-29T05:30:33.014Z,11.92
2022-10-29T05:32:59.740Z,11.87
2022-10-29T05:35:27.104Z,12.05
2022-10-29T05:37:55.168Z,12.15
2022-10-29T05:40:22.940Z,12.00
2022-10-29T05:42:50.043Z,12.06
2022-10-29T05:45:16.867Z,11.96
2022-10-29T05:47:43.771Z,12.00
2022-10-29T05:50:11.565Z,11.77
2022-10-29T05:52:38.659Z,11.81
2022-10-29T05:55:06.459Z,12.11
2022-10-29T05:57:33.128Z,12.00
2022-10-29T05:59:59.837Z,11.93
2022-10-29T06:02:26.511Z,11.87
2022-10-29T06:04:53.090Z,11.80
2022-10-29T06:07:19.667Z,11.78
2022-10-29T06:09:46.248Z,11.79
2022-10-29T06:12:12.805Z,11.76
2022-10-29T06:14:39.385Z,11.72
2022-10-29T06:17:05.913Z,11.65
2022-10-29T06:19:32.728Z,11.95
2022-10-29T06:22:00.460Z,11.81
2022-10-29T06:24:27.570Z,11.79
2022-10-29T06:26:54.668Z,12.00
2022-10-29T06:29:21.297Z,11.92
2022-10-29T06:31:47.876Z,12.10
2022-10-29T06:34:14.908Z,11.98
2022-10-29T06:36:41.607Z,12.08
2022-10-29T06:39:08.317Z,12.02
2022-10-29T06:41:34.861Z,12.01
2022-10-29T06:44:01.555Z,12.04
2022-10-29T06:46:28.143Z,12.06
2022-10-29T06:48:54.715Z,12.01
2022-10-29T06:53:54.814Z,12.07
2022-10-29T06:56:21.907Z,12.31
2022-10-29T06:58:48.491Z,12.29
2022-10-29T07:01:15.107Z,12.17
2022-10-29T07:03:41.683Z,12.36
2022-10-29T07:06:08.190Z,12.43
2022-10-29T07:08:34.844Z,12.49
2022-10-29T07:11:02.828Z,12.24
2022-10-29T07:13:29.413Z,12.11
2022-10-29T07:15:56.011Z,12.33
2022-10-29T07:18:22.501Z,12.44
2022-10-29T07:20:49.070Z,12.37
2022-10-29T07:23:15.816Z,12.51
2022-10-29T07:25:42.541Z,12.57
2022-10-29T07:28:16.490Z,12.57
2022-10-29T07:30:44.088Z,12.61
2022-10-29T07:33:11.120Z,12.47
2022-10-29T07:35:37.824Z,12.18
2022-10-29T07:38:10.477Z,12.36
2022-10-29T07:40:39.919Z,12.55
2022-10-29T07:43:06.539Z,12.71
2022-10-29T07:45:33.315Z,12.46
2022-10-29T07:48:02.876Z,12.87
2022-10-29T07:50:31.579Z,12.44
2022-10-29T07:53:02.258Z,12.63
2022-10-29T07:58:03.872Z,12.96
2022-10-29T08:00:32.121Z,12.54
2022-10-29T08:02:59.029Z,12.86
2022-10-29T08:05:27.023Z,12.94
2022-10-29T08:07:55.346Z,12.94
2022-10-29T08:10:23.247Z,13.03
2022-10-29T08:12:55.303Z,12.82
2022-10-29T08:15:22.943Z,13.30
2022-10-29T08:17:50.441Z,13.17
2022-10-29T08:20:17.807Z,13.06
2022-10-29T08:22:44.417Z,13.30
2022-10-29T08:25:11.958Z,12.60
2022-10-29T08:27:39.082Z,12.71
2022-10-29T08:30:07.812Z,12.96
2022-10-29T08:32:35.506Z,13.30
2022-10-29T08:35:02.605Z,13.44
2022-10-29T08:37:29.183Z,13.39
2022-10-29T08:39:55.766Z,13.23
2022-10-29T08:42:52.868Z,13.07
2022-10-29T08:45:34.983Z,13.44
2022-10-29T08:48:20.144Z,13.22
2022-10-29T08:51:14.105Z,13.34
2022-10-29T08:53:54.133Z,13.26
2022-10-29T08:56:43.647Z,13.36
2022-10-29T08:59:20.376Z,13.46
2022-10-29T09:01:47.723Z,13.17
2022-10-29T09:04:22.722Z,13.68
2022-10-29T09:07:14.626Z,13.48
2022-10-29T09:10:04.575Z,13.54
2022-10-29T09:12:56.606Z,13.15
2022-10-29T09:15:44.581Z,13.35
2022-10-29T09:18:35.956Z,13.97
2022-10-29T09:21:26.862Z,14.12
2022-10-29T09:24:32.040Z,13.88
2022-10-29T09:27:00.622Z,14.15
2022-10-29T09:29:48.770Z,13.83
2022-10-29T09:32:29.490Z,13.90
2022-10-29T09:35:01.733Z,14.03
2022-10-29T09:37:41.003Z,14.10
2022-10-29T09:40:21.059Z,13.47
2022-10-29T09:42:48.127Z,13.66
2022-10-29T09:45:18.142Z,13.17
2022-10-29T09:48:02.616Z,13.43
2022-10-29T09:50:40.651Z,13.63
2022-10-29T09:53:08.538Z,13.67
2022-10-29T09:55:43.818Z,13.86
2022-10-29T09:58:20.938Z,14.12
2022-10-29T10:00:47.487Z,14.08
2022-10-29T10:03:23.396Z,14.13
2022-10-29T10:06:10.286Z,14.01
2022-10-29T10:09:04.882Z,14.30
2022-10-29T10:11:54.267Z,13.50
2022-10-29T10:14:22.823Z,13.56
2022-10-29T10:16:58.340Z,13.69
2022-10-29T10:19:27.958Z,14.11
2022-10-29T10:22:03.100Z,13.90
2022-10-29T10:24:32.304Z,14.06
2022-10-29T10:26:59.013Z,13.90
2022-10-29T10:29:26.436Z,14.01
2022-10-29T10:31:55.709Z,14.11
2022-10-29T10:34:36.310Z,14.29
2022-10-29T10:37:05.228Z,14.28
2022-10-29T10:39:55.858Z,14.26
2022-10-29T10:42:28.769Z,14.72
2022-10-29T10:45:01.179Z,14.85
2022-10-29T10:47:33.908Z,14.52
2022-10-29T10:50:28.877Z,14.21
2022-10-29T10:52:58.602Z,14.54
2022-10-29T10:55:34.840Z,14.47
2022-10-29T10:58:26.467Z,14.77
2022-10-29T11:01:02.589Z,14.68
2022-10-29T11:03:34.872Z,14.41
2022-10-29T11:06:13.410Z,14.40
2022-10-29T11:08:53.317Z,14.72
2022-10-29T11:11:39.151Z,14.41
2022-10-29T11:14:21.887Z,14.81
2022-10-29T11:16:55.769Z,14.68
2022-10-29T11:19:57.655Z,15.01
2022-10-29T11:22:52.541Z,15.13
2022-10-29T11:25:29.796Z,14.99
2022-10-29T11:28:11.548Z,14.53
2022-10-29T11:30:50.707Z,14.51
2022-10-29T11:33:24.270Z,14.37
2022-10-29T11:36:14.156Z,14.02
2022-10-29T11:38:47.791Z,14.20
2022-10-29T11:41:39.290Z,14.20
2022-10-29T11:44:12.821Z,14.19
2022-10-29T11:47:04.320Z,14.78
2022-10-29T11:49:45.258Z,14.43
2022-10-29T11:52:23.040Z,14.31
2022-10-29T11:55:19.113Z,14.78
2022-10-29T11:57:55.560Z,13.78
2022-10-29T12:00:27.467Z,13.52
2022-10-29T12:03:19.881Z,13.72
2022-10-29T12:05:53.778Z,13.72
2022-10-29T12:08:29.449Z,13.75
2022-10-29T12:10:58.857Z,13.64
2022-10-29T12:13:47.169Z,14.22
2022-10-29T12:16:24.275Z,14.08
2022-10-29T12:18:55.411Z,14.07
2022-10-29T12:21:34.471Z,13.88
2022-10-29T12:24:03.753Z,14.43
2022-10-29T12:26:36.138Z,14.41
2022-10-29T12:29:22.026Z,15.25
2022-10-29T12:32:14.910Z,15.67
2022-10-29T12:34:46.023Z,15.96
2022-10-29T12:37:12.542Z,16.31
2022-10-29T12:39:44.527Z,16.39
2022-10-29T12:42:22.926Z,16.50
2022-10-29T12:45:17.419Z,16.79
2022-10-29T12:48:13.232Z,16.44
2022-10-29T12:50:51.696Z,16.37
2022-10-29T12:53:33.459Z,16.87
2022-10-29T12:56:00.345Z,17.38
2022-10-29T12:58:45.491Z,18.01
2022-10-29T13:02:05.817Z,18.26
2022-10-29T13:04:30.316Z,17.41
2022-10-29T13:07:00.628Z,17.06
2022-10-29T13:09:29.455Z,15.79
2022-10-29T13:11:56.092Z,15.54
2022-10-29T13:14:51.850Z,15.67
2022-10-29T13:17:27.715Z,15.78
2022-10-29T13:19:58.977Z,15.77
2022-10-29T13:25:44.024Z,15.45
2022-10-29T13:28:10.624Z,15.32
2022-10-29T13:30:41.656Z,15.41
2022-10-29T13:33:26.251Z,15.40
2022-10-29T13:35:57.597Z,15.13
2022-10-29T13:38:36.226Z,15.14
2022-10-29T13:41:28.011Z,15.04
2022-10-29T13:44:05.241Z,14.86
2022-10-29T13:46:57.929Z,15.22
2022-10-29T13:49:36.960Z,15.11
2022-10-29T13:52:09.383Z,15.28
2022-10-29T13:54:47.454Z,15.08
2022-10-29T13:57:50.699Z,15.41
2022-10-29T14:00:19.970Z,15.45
2022-10-29T14:03:15.028Z,15.67
2022-10-29T14:05:47.121Z,15.24
2022-10-29T14:08:54.190Z,15.36
2022-10-29T14:11:26.926Z,15.38
2022-10-29T14:13:58.817Z,15.32
2022-10-29T14:16:30.479Z,15.04
2022-10-29T14:18:57.052Z,15.05
2022-10-29T14:21:29.722Z,15.19
2022-10-29T14:23:58.652Z,15.02
2022-10-29T14:26:27.124Z,15.18
2022-10-29T14:28:53.872Z,15.10
2022-10-29T14:31:26.133Z,15.11
2022-10-29T14:34:00.447Z,14.98
2022-10-29T14:36:40.020Z,15.03
2022-10-29T14:39:12.004Z,14.57
2022-10-29T14:41:39.438Z,14.48
2022-10-29T14:44:15.323Z,14.81
2022-10-29T14:46:44.267Z,14.76
2022-10-29T14:49:23.601Z,14.20
2022-10-29T14:51:52.971Z,14.43
2022-10-29T14:54:28.351Z,14.18
2022-10-29T14:56:59.056Z,14.27
2022-10-29T14:59:29.288Z,14.06
2022-10-29T15:02:05.768Z,14.05
2022-10-29T15:04:50.496Z,14.01
2022-10-29T15:07:29.576Z,13.94
2022-10-29T15:10:08.155Z,13.82
2022-10-29T15:12:37.349Z,13.63
2022-10-29T15:15:18.901Z,13.71
2022-10-29T15:18:00.032Z,13.83
2022-10-29T15:20:32.190Z,14.03
2022-10-29T15:22:59.377Z,14.10
2022-10-29T15:25:35.738Z,14.22
2022-10-29T15:28:03.251Z,13.92
2022-10-29T15:30:37.795Z,13.69
2022-10-29T15:33:18.008Z,13.77
2022-10-29T15:35:53.368Z,13.70
2022-10-29T15:38:35.078Z,13.76
2022-10-29T15:41:19.571Z,13.83
2022-10-29T15:43:55.013Z,13.75
2022-10-29T15:46:36.008Z,13.89
2022-10-29T15:49:02.735Z,13.86
2022-10-29T15:51:31.018Z,14.28
2022-10-29T15:54:01.971Z,14.24
2022-10-29T15:56:30.909Z,14.16
2022-10-29T15:58:59.545Z,14.29
2022-10-29T16:01:26.185Z,14.41
2022-10-29T16:03:54.812Z,14.03
2022-10-29T16:06:21.478Z,14.30
2022-10-29T16:08:51.018Z,14.10
2022-10-29T16:11:21.191Z,13.97
2022-10-29T16:13:54.605Z,14.09
2022-10-29T16:16:23.946Z,14.03
2022-10-29T16:18:51.443Z,13.39
2022-10-29T16:21:25.877Z,13.49
2022-10-29T16:23:52.664Z,13.71
2022-10-29T16:26:23.822Z,13.52
2022-10-29T16:28:52.747Z,13.75
2022-10-29T16:31:23.026Z,13.79
2022-10-29T16:33:51.550Z,13.61
2022-10-29T16:36:18.369Z,13.53
2022-10-29T16:38:44.912Z,13.38
2022-10-29T16:41:16.023Z,13.74
2022-10-29T16:43:43.569Z,14.03
2022-10-29T16:46:11.020Z,13.74
2022-10-29T16:48:37.810Z,13.49
2022-10-29T16:51:04.975Z,13.68
2022-10-29T16:53:31.531Z,13.44
2022-10-29T16:55:58.156Z,13.41
2022-10-29T16:58:24.850Z,13.50
2022-10-29T17:00:51.713Z,13.35
2022-10-29T17:03:18.481Z,13.41
2022-10-29T17:05:46.480Z,13.44
2022-10-29T17:08:13.631Z,13.33
2022-10-29T17:10:40.210Z,13.07
2022-10-29T17:13:11.745Z,13.19
2022-10-29T17:15:41.520Z,13.26
2022-10-29T17:18:08.168Z,13.04
2022-10-29T17:20:34.759Z,13.06
2022-10-29T17:23:01.341Z,13.33
2022-10-29T17:25:27.939Z,13.04
2022-10-29T17:27:54.911Z,13.01
2022-10-29T17:30:21.660Z,13.02
2022-10-29T17:32:48.202Z,12.71
2022-10-29T17:35:14.863Z,12.86
2022-10-29T17:37:41.377Z,13.14
2022-10-29T17:40:08.606Z,13.15
2022-10-29T17:42:35.371Z,13.08
2022-10-29T17:45:01.937Z,12.99
2022-10-29T17:47:29.449Z,13.07
2022-10-29T17:49:56.191Z,13.02
2022-10-29T17:52:22.676Z,13.13
2022-10-29T17:54:49.281Z,13.11
2022-10-29T17:57:15.799Z,13.04
2022-10-29T17:59:42.339Z,12.95
2022-10-29T18:02:11.151Z,12.95
2022-10-29T18:04:38.119Z,13.14
2022-10-29T18:07:04.787Z,13.35
2022-10-29T18:09:31.366Z,13.20
2022-10-29T18:11:57.893Z,13.32
2022-10-29T18:14:24.684Z,13.30
2022-10-29T18:16:51.261Z,13.15
2022-10-29T18:19:17.841Z,13.32
2022-10-29T18:21:44.459Z,12.93
2022-10-29T18:24:11.100Z,13.28
2022-10-29T18:26:37.719Z,13.27
2022-10-29T18:29:10.966Z,13.49
2022-10-29T18:31:38.001Z,13.60
2022-10-29T18:34:07.488Z,13.54
2022-10-29T18:36:35.655Z,13.45
2022-10-29T18:39:04.103Z,13.70
2022-10-29T18:41:30.884Z,13.79
2022-10-29T18:43:58.615Z,13.81
2022-10-29T18:46:25.553Z,13.82
2022-10-29T18:48:52.427Z,13.84
2022-10-29T18:51:25.052Z,13.75
2022-10-29T18:53:53.362Z,13.79
2022-10-29T18:56:21.858Z,13.85
2022-10-29T18:58:49.001Z,13.83
2022-10-29T19:01:22.703Z,13.74
2022-10-29T19:03:51.535Z,13.71
2022-10-29T19:06:19.343Z,13.70
2022-10-29T19:08:46.456Z,13.83
2022-10-29T19:11:15.582Z,13.89
2022-10-29T19:13:42.386Z,13.88
2022-10-29T19:16:11.424Z,13.77
2022-10-29T19:18:39.259Z,13.66
2022-10-29T19:21:11.639Z,13.66
2022-10-29T19:23:38.581Z,13.53
2022-10-29T19:26:07.321Z,13.39
2022-10-29T19:28:34.692Z,13.42
2022-10-29T19:31:06.404Z,13.39
2022-10-29T19:33:33.155Z,13.40
2022-10-29T19:36:00.220Z,13.37
2022-10-29T19:38:27.439Z,13.36
2022-10-29T19:40:56.887Z,13.44
2022-10-29T19:43:24.398Z,13.60
2022-10-29T19:45:51.840Z,13.70
2022-10-29T19:48:19.019Z,13.63
2022-10-29T19:50:46.783Z,13.42
2022-10-29T19:53:13.553Z,13.46
2022-10-29T19:55:40.685Z,13.41
2022-10-29T19:58:07.711Z,13.38
2022-10-29T20:00:34.245Z,13.30
2022-10-29T20:03:00.951Z,13.31
2022-10-29T20:05:27.750Z,13.34
2022-10-29T20:07:55.930Z,13.37
2022-10-29T20:10:23.958Z,13.43
2022-10-29T20:12:50.608Z,13.47
2022-10-29T20:15:17.293Z,13.46
2022-10-29T20:17:44.001Z,13.36
2022-10-29T20:20:15.723Z,13.38
2022-10-29T20:22:43.699Z,13.41
2022-10-29T20:25:10.347Z,13.30
2022-10-29T20:27:36.914Z,13.29
2022-10-29T20:30:05.261Z,13.37
2022-10-29T20:32:31.902Z,13.37
2022-10-29T20:34:58.484Z,13.46
2022-10-29T20:37:25.164Z,13.41
2022-10-29T20:39:51.711Z,13.43
2022-10-29T20:42:18.429Z,13.19
2022-10-29T20:44:45.931Z,13.05
2022-10-29T20:47:12.573Z,12.84
2022-10-29T20:49:39.132Z,12.89
2022-10-29T20:52:07.182Z,12.85
2022-10-29T20:54:33.928Z,12.62
2022-10-29T20:57:00.487Z,12.54
2022-10-29T20:59:27.020Z,12.42
2022-10-29T21:01:53.769Z,12.50
2022-10-29T21:04:20.435Z,12.56
2022-10-29T21:06:47.068Z,12.50
2022-10-29T21:09:13.575Z,12.37
2022-10-29T21:11:41.383Z,12.55
2022-10-29T21:14:07.861Z,12.73
2022-10-29T21:16:34.458Z,12.78
2022-10-29T21:19:01.983Z,12.62
2022-10-29T21:21:29.445Z,12.43
2022-10-29T21:23:59.193Z,12.46
2022-10-29T21:26:27.264Z,12.52
2022-10-29T21:28:54.401Z,12.62
2022-10-29T21:31:22.470Z,12.62
2022-10-29T21:33:50.925Z,12.43
2022-10-29T21:36:17.788Z,12.41
2022-10-29T21:38:44.428Z,12.54
2022-10-29T21:41:11.075Z,12.74
2022-10-29T21:43:38.674Z,12.62
2022-10-29T21:46:05.780Z,12.73
2022-10-29T21:48:32.414Z,12.73
2022-10-29T21:51:04.591Z,12.89
2022-10-29T21:53:31.741Z,12.83
2022-10-29T21:56:02.254Z,12.86
2022-10-29T21:58:29.259Z,13.05
2022-10-29T22:01:03.974Z,13.11
2022-10-29T22:03:34.963Z,13.02
2022-10-29T22:06:12.490Z,12.66
2022-10-29T22:08:39.643Z,12.61
2022-10-29T22:11:06.880Z,12.87
2022-10-29T22:13:34.631Z,12.93
2022-10-29T22:16:04.015Z,12.96
2022-10-29T22:18:31.624Z,13.22
2022-10-29T22:21:15.463Z,13.45
2022-10-29T22:23:50.043Z,13.58
2022-10-29T22:26:19.311Z,13.66
2022-10-29T22:28:49.931Z,13.73
2022-10-29T22:31:18.592Z,13.66
2022-10-29T22:33:45.660Z,13.19
2022-10-29T22:36:14.988Z,13.19
2022-10-29T22:38:41.893Z,13.24
2022-10-29T22:41:11.244Z,13.48
2022-10-29T22:43:38.233Z,13.48
2022-10-29T22:46:06.077Z,13.21
2022-10-29T22:48:33.067Z,13.17
2022-10-29T22:51:01.912Z,13.05
2022-10-29T22:53:28.616Z,12.86
2022-10-29T22:55:55.262Z,12.75
2022-10-29T22:58:21.922Z,12.79
2022-10-29T23:00:48.559Z,13.17
2022-10-29T23:03:15.129Z,13.20
2022-10-29T23:05:41.709Z,13.39
2022-10-29T23:08:08.227Z,13.53
2022-10-29T23:10:35.817Z,13.20
2022-10-29T23:13:02.452Z,13.26
2022-10-29T23:15:28.996Z,13.06
2022-10-29T23:17:55.787Z,13.40
2022-10-29T23:20:22.603Z,13.45
2022-10-29T23:22:49.082Z,13.45
2022-10-29T23:25:15.680Z,13.54
2022-10-29T23:27:42.219Z,13.42
2022-10-29T23:30:09.523Z,13.12
2022-10-29T23:32:36.102Z,13.18
2022-10-29T23:35:02.701Z,13.27
2022-10-29T23:37:29.322Z,12.86
2022-10-29T23:39:55.828Z,13.08
2022-10-29T23:42:22.430Z,13.27
2022-10-29T23:44:48.942Z,13.39
2022-10-29T23:47:15.500Z,13.29
2022-10-29T23:49:42.051Z,13.14
2022-10-29T23:52:08.634Z,13.03
2022-10-29T23:54:35.173Z,13.11
2022-10-29T23:57:01.819Z,12.97
2022-10-29T23:59:28.358Z,13.03
